sensor_id;sensor_type;location;lat;lon;timestamp;temperature;humidity
20384;DHT22;46458;50.966;7.002;2024-01-15T00:01:59;1.90;1.00
20384;DHT22;46458;50.966;7.002;2024-01-15T00:04:28;1.80;1.00
20384;DHT22;46458;50.966;7.002;2024-01-15T00:06:57;1.60;1.00
20384;DHT22;46458;50.966;7.002;2024-01-15T00:09:26;1.50;99.90
20384;DHT22;46458;50.966;7.002;2024-01-15T00:11:58;1.40;99.90
20384;DHT22;46458;50.966;7.002;2024-01-15T00:14:28;1.40;1.00
20384;DHT22;46458;50.966;7.002;2024-01-15T00:16:56;1.40;1.00
20384;DHT22;46458;50.966;7.002;2024-01-15T00:19:25;1.40;1.00
20384;DHT22;46458;50.966;7.002;2024-01-15T00:21:54;1.40;1.00
20384;DHT22;46458;50.966;7.002;2024-01-15T00:24:23;1.40;1.00
20384;DHT22;46458;50.966;7.002;2024-01-15T00:26:51;1.40;7.30
20384;DHT22;46458;50.966;7.002;2024-01-15T00:29:23;1.50;58.10
20384;DHT22;46458;50.966;7.002;2024-01-15T00:31:52;1.50;60.20
20384;DHT22;46458;50.966;7.002;2024-01-15T00:34:21;1.50;86.00
20384;DHT22;46458;50.966;7.002;2024-01-15T00:36:50;1.40;54.70
20384;DHT22;46458;50.966;7.002;2024-01-15T00:39:18;1.30;99.90
20384;DHT22;46458;50.966;7.002;2024-01-15T00:41:47;1.30;99.90
20384;DHT22;46458;50.966;7.002;2024-01-15T00:44:16;1.30;99.90
20384;DHT22;46458;50.966;7.002;2024-01-15T00:46:47;1.20;99.90
20384;DHT22;46458;50.966;7.002;2024-01-15T00:49:16;1.10;99.90
20384;DHT22;46458;50.966;7.002;2024-01-15T00:51:45;1.20;99.90
20384;DHT22;46458;50.966;7.002;2024-01-15T00:54:13;1.20;1.00
20384;DHT22;46458;50.966;7.002;2024-01-15T00:56:43;1.20;1.00
20384;DHT22;46458;50.966;7.002;2024-01-15T00:59:12;1.20;1.00
20384;DHT22;46458;50.966;7.002;2024-01-15T01:01:41;1.10;1.00
20384;DHT22;46458;50.966;7.002;2024-01-15T01:04:14;1.20;1.00
20384;DHT22;46458;50.966;7.002;2024-01-15T01:06:43;1.10;1.00
20384;DHT22;46458;50.966;7.002;2024-01-15T01:09:11;1.20;1.00
20384;DHT22;46458;50.966;7.002;2024-01-15T01:11:40;1.20;1.00
20384;DHT22;46458;50.966;7.002;2024-01-15T01:14:09;1.20;1.00
20384;DHT22;46458;50.966;7.002;2024-01-15T01:16:38;1.30;1.00
20384;DHT22;46458;50.966;7.002;2024-01-15T01:19:07;1.20;1.00
20384;DHT22;46458;50.966;7.002;2024-01-15T01:21:38;1.20;1.00
20384;DHT22;46458;50.966;7.002;2024-01-15T01:24:07;1.20;1.00
20384;DHT22;46458;50.966;7.002;2024-01-15T01:26:36;1.20;1.00
20384;DHT22;46458;50.966;7.002;2024-01-15T01:29:04;1.30;1.00
20384;DHT22;46458;50.966;7.002;2024-01-15T01:31:33;1.30;1.00
20384;DHT22;46458;50.966;7.002;2024-01-15T01:34:02;1.30;1.00
20384;DHT22;46458;50.966;7.002;2024-01-15T01:36:31;1.40;1.00
20384;DHT22;46458;50.966;7.002;2024-01-15T01:39:03;1.40;1.00
20384;DHT22;46458;50.966;7.002;2024-01-15T01:41:32;1.40;1.00
20384;DHT22;46458;50.966;7.002;2024-01-15T01:44:01;1.30;1.00
20384;DHT22;46458;50.966;7.002;2024-01-15T01:46:30;1.30;1.00
20384;DHT22;46458;50.966;7.002;2024-01-15T01:48:59;1.40;1.00
20384;DHT22;46458;50.966;7.002;2024-01-15T01:51:31;1.40;1.00
20384;DHT22;46458;50.966;7.002;2024-01-15T01:54:03;1.40;1.00
20384;DHT22;46458;50.966;7.002;2024-01-15T01:56:33;1.40;1.00
20384;DHT22;46458;50.966;7.002;2024-01-15T01:59:02;1.40;1.00
20384;DHT22;46458;50.966;7.002;2024-01-15T02:01:32;1.40;1.00
20384;DHT22;46458;50.966;7.002;2024-01-15T02:04:01;1.40;1.00
20384;DHT22;46458;50.966;7.002;2024-01-15T02:06:30;1.50;1.00
20384;DHT22;46458;50.966;7.002;2024-01-15T02:08:59;1.50;1.00
20384;DHT22;46458;50.966;7.002;2024-01-15T02:11:31;1.50;1.00
20384;DHT22;46458;50.966;7.002;2024-01-15T02:14:00;1.50;1.00
20384;DHT22;46458;50.966;7.002;2024-01-15T02:16:29;1.60;1.00
20384;DHT22;46458;50.966;7.002;2024-01-15T02:18:58;1.60;1.00
20384;DHT22;46458;50.966;7.002;2024-01-15T02:21:27;1.60;1.00
20384;DHT22;46458;50.966;7.002;2024-01-15T02:23:59;1.60;99.90
20384;DHT22;46458;50.966;7.002;2024-01-15T02:26:29;1.70;1.00
20384;DHT22;46458;50.966;7.002;2024-01-15T02:29:02;1.70;1.00
20384;DHT22;46458;50.966;7.002;2024-01-15T02:31:31;1.70;99.90
20384;DHT22;46458;50.966;7.002;2024-01-15T02:34:00;1.70;99.90
20384;DHT22;46458;50.966;7.002;2024-01-15T02:36:29;1.60;1.00
20384;DHT22;46458;50.966;7.002;2024-01-15T02:39:00;1.80;1.00
20384;DHT22;46458;50.966;7.002;2024-01-15T02:41:32;1.80;1.00
20384;DHT22;46458;50.966;7.002;2024-01-15T02:44:00;1.80;99.90
20384;DHT22;46458;50.966;7.002;2024-01-15T02:46:29;1.70;1.00
20384;DHT22;46458;50.966;7.002;2024-01-15T02:48:58;1.70;1.00
20384;DHT22;46458;50.966;7.002;2024-01-15T02:51:27;1.80;1.00
20384;DHT22;46458;50.966;7.002;2024-01-15T02:53:56;1.80;99.90
20384;DHT22;46458;50.966;7.002;2024-01-15T02:56:27;1.80;99.90
20384;DHT22;46458;50.966;7.002;2024-01-15T02:58:56;1.80;99.90
20384;DHT22;46458;50.966;7.002;2024-01-15T03:01:25;1.80;70.60
20384;DHT22;46458;50.966;7.002;2024-01-15T03:03:53;1.80;1.00
20384;DHT22;46458;50.966;7.002;2024-01-15T03:06:23;1.80;1.00
20384;DHT22;46458;50.966;7.002;2024-01-15T03:08:52;1.90;99.90
20384;DHT22;46458;50.966;7.002;2024-01-15T03:11:20;1.90;1.00
20384;DHT22;46458;50.966;7.002;2024-01-15T03:13:52;1.90;99.90
20384;DHT22;46458;50.966;7.002;2024-01-15T03:16:20;1.90;99.90
20384;DHT22;46458;50.966;7.002;2024-01-15T03:18:49;1.90;1.00
20384;DHT22;46458;50.966;7.002;2024-01-15T03:21:18;1.80;99.90
20384;DHT22;46458;50.966;7.002;2024-01-15T03:23:47;1.80;1.00
20384;DHT22;46458;50.966;7.002;2024-01-15T03:26:15;1.80;99.90
20384;DHT22;46458;50.966;7.002;2024-01-15T03:28:44;1.80;99.90
20384;DHT22;46458;50.966;7.002;2024-01-15T03:31:16;1.80;1.00
20384;DHT22;46458;50.966;7.002;2024-01-15T03:33:45;1.80;99.90
20384;DHT22;46458;50.966;7.002;2024-01-15T03:36:13;1.80;99.90
20384;DHT22;46458;50.966;7.002;2024-01-15T03:38:42;1.90;1.00
20384;DHT22;46458;50.966;7.002;2024-01-15T03:41:11;1.90;99.90
20384;DHT22;46458;50.966;7.002;2024-01-15T03:43:40;1.90;99.90
20384;DHT22;46458;50.966;7.002;2024-01-15T03:46:08;1.90;99.90
20384;DHT22;46458;50.966;7.002;2024-01-15T03:48:41;1.90;99.90
20384;DHT22;46458;50.966;7.002;2024-01-15T03:51:09;1.90;99.90
20384;DHT22;46458;50.966;7.002;2024-01-15T03:53:38;1.90;9.70
20384;DHT22;46458;50.966;7.002;2024-01-15T03:56:07;1.90;99.90
20384;DHT22;46458;50.966;7.002;2024-01-15T03:58:33;1.90;1.00
20384;DHT22;46458;50.966;7.002;2024-01-15T04:01:02;1.90;35.60
20384;DHT22;46458;50.966;7.002;2024-01-15T04:03:31;1.90;99.90
20384;DHT22;46458;50.966;7.002;2024-01-15T04:06:03;1.90;99.90
20384;DHT22;46458;50.966;7.002;2024-01-15T04:08:31;2.00;99.90
20384;DHT22;46458;50.966;7.002;2024-01-15T04:11:00;2.00;99.90
20384;DHT22;46458;50.966;7.002;2024-01-15T04:13:32;2.00;1.00
20384;DHT22;46458;50.966;7.002;2024-01-15T04:16:01;2.00;1.00
20384;DHT22;46458;50.966;7.002;2024-01-15T04:18:29;2.00;1.00
20384;DHT22;46458;50.966;7.002;2024-01-15T04:20:58;2.00;1.00
20384;DHT22;46458;50.966;7.002;2024-01-15T04:23:30;2.00;1.00
20384;DHT22;46458;50.966;7.002;2024-01-15T04:25:58;2.00;1.00
20384;DHT22;46458;50.966;7.002;2024-01-15T04:28:27;2.00;1.00
20384;DHT22;46458;50.966;7.002;2024-01-15T04:30:56;2.00;99.90
20384;DHT22;46458;50.966;7.002;2024-01-15T04:33:24;1.90;1.00
20384;DHT22;46458;50.966;7.002;2024-01-15T04:35:56;1.90;1.00
20384;DHT22;46458;50.966;7.002;2024-01-15T04:38:24;1.90;99.90
20384;DHT22;46458;50.966;7.002;2024-01-15T04:40:56;1.90;99.90
20384;DHT22;46458;50.966;7.002;2024-01-15T04:43:24;2.00;99.90
20384;DHT22;46458;50.966;7.002;2024-01-15T04:45:53;2.00;15.80
20384;DHT22;46458;50.966;7.002;2024-01-15T04:48:22;2.00;67.00
20384;DHT22;46458;50.966;7.002;2024-01-15T04:50:51;2.00;1.00
20384;DHT22;46458;50.966;7.002;2024-01-15T04:53:20;2.00;1.00
20384;DHT22;46458;50.966;7.002;2024-01-15T04:55:48;2.10;1.00
20384;DHT22;46458;50.966;7.002;2024-01-15T04:58:20;2.00;1.00
20384;DHT22;46458;50.966;7.002;2024-01-15T05:00:50;2.10;1.00
20384;DHT22;46458;50.966;7.002;2024-01-15T05:03:20;2.10;99.90
20384;DHT22;46458;50.966;7.002;2024-01-15T05:05:48;2.10;22.60
20384;DHT22;46458;50.966;7.002;2024-01-15T05:08:17;2.10;1.00
20384;DHT22;46458;50.966;7.002;2024-01-15T05:10:47;2.10;1.00
20384;DHT22;46458;50.966;7.002;2024-01-15T05:13:18;2.10;99.90
20384;DHT22;46458;50.966;7.002;2024-01-15T05:15:47;2.10;1.00
20384;DHT22;46458;50.966;7.002;2024-01-15T05:18:16;2.10;1.00
20384;DHT22;46458;50.966;7.002;2024-01-15T05:20:45;2.10;99.90
20384;DHT22;46458;50.966;7.002;2024-01-15T05:23:14;2.10;1.00
20384;DHT22;46458;50.966;7.002;2024-01-15T05:25:43;2.10;1.00
20384;DHT22;46458;50.966;7.002;2024-01-15T05:28:12;2.10;99.90
20384;DHT22;46458;50.966;7.002;2024-01-15T05:30:46;2.10;99.90
20384;DHT22;46458;50.966;7.002;2024-01-15T05:33:16;2.10;99.90
20384;DHT22;46458;50.966;7.002;2024-01-15T05:35:45;2.10;1.00
20384;DHT22;46458;50.966;7.002;2024-01-15T05:38:16;2.20;1.00
20384;DHT22;46458;50.966;7.002;2024-01-15T05:40:44;2.20;1.00
20384;DHT22;46458;50.966;7.002;2024-01-15T05:43:13;2.20;99.90
20384;DHT22;46458;50.966;7.002;2024-01-15T05:45:45;2.70;1.00
20384;DHT22;46458;50.966;7.002;2024-01-15T05:48:14;2.20;99.90
20384;DHT22;46458;50.966;7.002;2024-01-15T05:50:43;2.20;1.00
20384;DHT22;46458;50.966;7.002;2024-01-15T05:53:12;2.20;99.90
20384;DHT22;46458;50.966;7.002;2024-01-15T05:55:41;2.20;1.00
20384;DHT22;46458;50.966;7.002;2024-01-15T05:58:09;2.20;99.90
20384;DHT22;46458;50.966;7.002;2024-01-15T06:00:38;2.10;99.90
20384;DHT22;46458;50.966;7.002;2024-01-15T06:03:09;2.10;1.00
20384;DHT22;46458;50.966;7.002;2024-01-15T06:05:38;2.10;1.00
20384;DHT22;46458;50.966;7.002;2024-01-15T06:08:07;2.10;1.00
20384;DHT22;46458;50.966;7.002;2024-01-15T06:10:36;2.10;1.00
20384;DHT22;46458;50.966;7.002;2024-01-15T06:13:04;2.10;1.00
20384;DHT22;46458;50.966;7.002;2024-01-15T06:15:33;2.10;1.00
20384;DHT22;46458;50.966;7.002;2024-01-15T06:18:02;2.10;1.00
20384;DHT22;46458;50.966;7.002;2024-01-15T06:20:33;2.10;1.00
20384;DHT22;46458;50.966;7.002;2024-01-15T06:23:02;2.20;99.90
20384;DHT22;46458;50.966;7.002;2024-01-15T06:25:31;2.20;1.00
20384;DHT22;46458;50.966;7.002;2024-01-15T06:28:00;2.20;99.90
20384;DHT22;46458;50.966;7.002;2024-01-15T06:30:30;2.30;91.10
20384;DHT22;46458;50.966;7.002;2024-01-15T06:32:59;2.30;99.90
20384;DHT22;46458;50.966;7.002;2024-01-15T06:35:28;2.30;1.00
20384;DHT22;46458;50.966;7.002;2024-01-15T06:37:59;2.30;99.90
20384;DHT22;46458;50.966;7.002;2024-01-15T06:40:28;2.40;53.90
20384;DHT22;46458;50.966;7.002;2024-01-15T06:42:57;2.30;99.90
20384;DHT22;46458;50.966;7.002;2024-01-15T06:45:25;2.30;99.90
20384;DHT22;46458;50.966;7.002;2024-01-15T06:47:54;2.30;99.90
20384;DHT22;46458;50.966;7.002;2024-01-15T06:50:24;2.40;1.00
20384;DHT22;46458;50.966;7.002;2024-01-15T06:52:52;2.40;1.00
20384;DHT22;46458;50.966;7.002;2024-01-15T06:55:24;2.40;1.00
20384;DHT22;46458;50.966;7.002;2024-01-15T06:57:53;2.40;1.00
20384;DHT22;46458;50.966;7.002;2024-01-15T07:00:22;2.40;1.00
20384;DHT22;46458;50.966;7.002;2024-01-15T07:02:51;2.30;1.00
20384;DHT22;46458;50.966;7.002;2024-01-15T07:05:20;2.30;1.00
20384;DHT22;46458;50.966;7.002;2024-01-15T07:07:49;2.30;99.90
20384;DHT22;46458;50.966;7.002;2024-01-15T07:10:18;2.20;1.00
20384;DHT22;46458;50.966;7.002;2024-01-15T07:12:49;2.20;99.90
20384;DHT22;46458;50.966;7.002;2024-01-15T07:15:19;2.30;1.00
20384;DHT22;46458;50.966;7.002;2024-01-15T07:17:48;2.30;1.00
20384;DHT22;46458;50.966;7.002;2024-01-15T07:20:17;2.30;99.90
20384;DHT22;46458;50.966;7.002;2024-01-15T07:22:45;2.30;87.80
20384;DHT22;46458;50.966;7.002;2024-01-15T07:25:12;2.30;1.00
20384;DHT22;46458;50.966;7.002;2024-01-15T07:27:41;2.30;77.20
20384;DHT22;46458;50.966;7.002;2024-01-15T07:30:14;2.30;1.00
20384;DHT22;46458;50.966;7.002;2024-01-15T07:32:42;2.30;1.00
20384;DHT22;46458;50.966;7.002;2024-01-15T07:35:11;2.30;99.90
20384;DHT22;46458;50.966;7.002;2024-01-15T07:37:40;2.40;99.90
20384;DHT22;46458;50.966;7.002;2024-01-15T07:40:11;2.40;1.00
20384;DHT22;46458;50.966;7.002;2024-01-15T07:42:39;2.40;99.90
20384;DHT22;46458;50.966;7.002;2024-01-15T07:45:08;2.30;1.00
20384;DHT22;46458;50.966;7.002;2024-01-15T07:47:40;2.30;17.20
20384;DHT22;46458;50.966;7.002;2024-01-15T07:50:09;2.30;1.00
20384;DHT22;46458;50.966;7.002;2024-01-15T07:52:38;2.30;29.00
20384;DHT22;46458;50.966;7.002;2024-01-15T07:55:08;2.40;99.90
20384;DHT22;46458;50.966;7.002;2024-01-15T07:57:36;2.40;99.90
20384;DHT22;46458;50.966;7.002;2024-01-15T08:00:06;2.40;1.00
20384;DHT22;46458;50.966;7.002;2024-01-15T08:02:35;2.50;1.00
20384;DHT22;46458;50.966;7.002;2024-01-15T08:05:07;2.50;99.90
20384;DHT22;46458;50.966;7.002;2024-01-15T08:07:36;2.50;1.00
20384;DHT22;46458;50.966;7.002;2024-01-15T08:10:05;2.50;1.00
20384;DHT22;46458;50.966;7.002;2024-01-15T08:12:34;2.60;99.90
20384;DHT22;46458;50.966;7.002;2024-01-15T08:15:04;2.60;1.00
20384;DHT22;46458;50.966;7.002;2024-01-15T08:17:33;2.60;99.90
20384;DHT22;46458;50.966;7.002;2024-01-15T08:20:02;2.60;99.90
20384;DHT22;46458;50.966;7.002;2024-01-15T08:22:33;2.70;1.00
20384;DHT22;46458;50.966;7.002;2024-01-15T08:25:03;2.80;1.00
20384;DHT22;46458;50.966;7.002;2024-01-15T08:27:32;2.70;1.00
20384;DHT22;46458;50.966;7.002;2024-01-15T08:30:01;2.80;99.90
20384;DHT22;46458;50.966;7.002;2024-01-15T08:32:30;2.70;99.90
20384;DHT22;46458;50.966;7.002;2024-01-15T08:34:59;2.70;1.00
20384;DHT22;46458;50.966;7.002;2024-01-15T08:37:29;2.70;1.00
20384;DHT22;46458;50.966;7.002;2024-01-15T08:40:01;2.80;1.00
20384;DHT22;46458;50.966;7.002;2024-01-15T08:42:30;2.70;1.00
20384;DHT22;46458;50.966;7.002;2024-01-15T08:44:59;2.80;1.00
20384;DHT22;46458;50.966;7.002;2024-01-15T08:47:28;2.80;1.00
20384;DHT22;46458;50.966;7.002;2024-01-15T08:49:57;2.80;99.90
20384;DHT22;46458;50.966;7.002;2024-01-15T08:52:26;2.80;1.00
20384;DHT22;46458;50.966;7.002;2024-01-15T08:57:27;2.70;1.00
20384;DHT22;46458;50.966;7.002;2024-01-15T08:59:55;2.80;99.90
20384;DHT22;46458;50.966;7.002;2024-01-15T09:02:24;2.70;99.90
20384;DHT22;46458;50.966;7.002;2024-01-15T09:04:53;2.80;99.90
20384;DHT22;46458;50.966;7.002;2024-01-15T09:07:22;2.80;99.90
20384;DHT22;46458;50.966;7.002;2024-01-15T09:09:52;2.70;99.90
20384;DHT22;46458;50.966;7.002;2024-01-15T09:12:20;2.70;99.90
20384;DHT22;46458;50.966;7.002;2024-01-15T09:14:52;2.70;99.90
20384;DHT22;46458;50.966;7.002;2024-01-15T09:17:21;2.60;1.00
20384;DHT22;46458;50.966;7.002;2024-01-15T09:19:50;2.30;99.90
20384;DHT22;46458;50.966;7.002;2024-01-15T09:22:19;2.60;1.00
20384;DHT22;46458;50.966;7.002;2024-01-15T09:24:48;2.50;99.90
20384;DHT22;46458;50.966;7.002;2024-01-15T09:27:16;2.40;99.90
20384;DHT22;46458;50.966;7.002;2024-01-15T09:29:45;2.50;99.90
20384;DHT22;46458;50.966;7.002;2024-01-15T09:32:16;2.50;99.90
20384;DHT22;46458;50.966;7.002;2024-01-15T09:34:46;2.50;1.00
20384;DHT22;46458;50.966;7.002;2024-01-15T09:37:15;2.40;1.00
20384;DHT22;46458;50.966;7.002;2024-01-15T09:39:44;2.50;99.90
20384;DHT22;46458;50.966;7.002;2024-01-15T09:42:14;2.40;1.00
20384;DHT22;46458;50.966;7.002;2024-01-15T09:44:43;2.40;99.90
20384;DHT22;46458;50.966;7.002;2024-01-15T09:47:16;2.40;1.00
20384;DHT22;46458;50.966;7.002;2024-01-15T09:49:46;2.50;1.00
20384;DHT22;46458;50.966;7.002;2024-01-15T09:52:15;2.40;99.90
20384;DHT22;46458;50.966;7.002;2024-01-15T09:54:45;2.30;1.00
20384;DHT22;46458;50.966;7.002;2024-01-15T09:57:14;2.30;99.90
20384;DHT22;46458;50.966;7.002;2024-01-15T09:59:43;2.20;99.90
20384;DHT22;46458;50.966;7.002;2024-01-15T10:02:16;2.20;1.00
20384;DHT22;46458;50.966;7.002;2024-01-15T10:04:45;2.20;1.00
20384;DHT22;46458;50.966;7.002;2024-01-15T10:07:15;2.20;1.00
20384;DHT22;46458;50.966;7.002;2024-01-15T10:09:45;2.20;1.00
20384;DHT22;46458;50.966;7.002;2024-01-15T10:12:14;2.10;1.00
20384;DHT22;46458;50.966;7.002;2024-01-15T10:14:43;2.20;1.00
20384;DHT22;46458;50.966;7.002;2024-01-15T10:17:12;2.20;73.20
20384;DHT22;46458;50.966;7.002;2024-01-15T10:19:46;2.30;99.90
20384;DHT22;46458;50.966;7.002;2024-01-15T10:22:15;2.30;99.90
20384;DHT22;46458;50.966;7.002;2024-01-15T10:24:44;2.30;99.90
20384;DHT22;46458;50.966;7.002;2024-01-15T10:27:13;2.30;99.90
20384;DHT22;46458;50.966;7.002;2024-01-15T10:29:42;2.30;99.90
20384;DHT22;46458;50.966;7.002;2024-01-15T10:32:11;2.10;99.90
20384;DHT22;46458;50.966;7.002;2024-01-15T10:34:40;2.10;99.90
20384;DHT22;46458;50.966;7.002;2024-01-15T10:37:11;2.20;1.00
20384;DHT22;46458;50.966;7.002;2024-01-15T10:39:41;2.20;1.00
20384;DHT22;46458;50.966;7.002;2024-01-15T10:42:10;2.30;1.00
20384;DHT22;46458;50.966;7.002;2024-01-15T10:44:41;2.30;1.00
20384;DHT22;46458;50.966;7.002;2024-01-15T10:47:12;2.30;1.00
20384;DHT22;46458;50.966;7.002;2024-01-15T10:49:41;2.30;1.00
20384;DHT22;46458;50.966;7.002;2024-01-15T10:52:13;2.30;1.00
20384;DHT22;46458;50.966;7.002;2024-01-15T10:54:43;2.30;1.00
20384;DHT22;46458;50.966;7.002;2024-01-15T10:57:14;2.20;1.00
20384;DHT22;46458;50.966;7.002;2024-01-15T10:59:43;2.10;1.00
20384;DHT22;46458;50.966;7.002;2024-01-15T11:02:13;2.00;1.00
20384;DHT22;46458;50.966;7.002;2024-01-15T11:04:42;2.00;1.00
20384;DHT22;46458;50.966;7.002;2024-01-15T11:07:14;2.10;1.00
20384;DHT22;46458;50.966;7.002;2024-01-15T11:09:45;2.20;1.00
20384;DHT22;46458;50.966;7.002;2024-01-15T11:12:14;2.30;1.00
20384;DHT22;46458;50.966;7.002;2024-01-15T11:14:46;2.50;1.00
20384;DHT22;46458;50.966;7.002;2024-01-15T11:17:16;2.40;1.00
20384;DHT22;46458;50.966;7.002;2024-01-15T11:19:47;2.40;1.00
20384;DHT22;46458;50.966;7.002;2024-01-15T11:25:18;2.50;1.00
20384;DHT22;46458;50.966;7.002;2024-01-15T11:27:49;2.60;1.00
20384;DHT22;46458;50.966;7.002;2024-01-15T11:30:19;2.60;1.00
20384;DHT22;46458;50.966;7.002;2024-01-15T11:32:48;2.80;1.00
20384;DHT22;46458;50.966;7.002;2024-01-15T11:35:17;2.80;1.00
20384;DHT22;46458;50.966;7.002;2024-01-15T11:37:58;2.70;1.00
20384;DHT22;46458;50.966;7.002;2024-01-15T11:40:39;3.00;1.00
20384;DHT22;46458;50.966;7.002;2024-01-15T11:43:09;3.00;1.00
20384;DHT22;46458;50.966;7.002;2024-01-15T11:45:39;3.00;1.00
20384;DHT22;46458;50.966;7.002;2024-01-15T11:48:12;2.90;99.90
20384;DHT22;46458;50.966;7.002;2024-01-15T11:50:42;2.70;1.00
20384;DHT22;46458;50.966;7.002;2024-01-15T11:53:16;2.70;1.00
20384;DHT22;46458;50.966;7.002;2024-01-15T11:55:51;2.70;1.00
20384;DHT22;46458;50.966;7.002;2024-01-15T11:58:20;2.70;1.00
20384;DHT22;46458;50.966;7.002;2024-01-15T12:00:51;2.80;1.00
20384;DHT22;46458;50.966;7.002;2024-01-15T12:03:21;2.80;1.00
20384;DHT22;46458;50.966;7.002;2024-01-15T12:05:50;2.90;1.00
20384;DHT22;46458;50.966;7.002;2024-01-15T12:08:26;3.00;1.00
20384;DHT22;46458;50.966;7.002;2024-01-15T12:10:57;3.10;1.00
20384;DHT22;46458;50.966;7.002;2024-01-15T12:13:27;3.10;99.90
20384;DHT22;46458;50.966;7.002;2024-01-15T12:15:56;3.20;1.00
20384;DHT22;46458;50.966;7.002;2024-01-15T12:18:26;3.00;1.00
20384;DHT22;46458;50.966;7.002;2024-01-15T12:20:54;2.90;1.00
20384;DHT22;46458;50.966;7.002;2024-01-15T12:23:27;3.10;1.00
20384;DHT22;46458;50.966;7.002;2024-01-15T12:25:58;3.60;47.70
20384;DHT22;46458;50.966;7.002;2024-01-15T12:28:27;3.80;16.90
20384;DHT22;46458;50.966;7.002;2024-01-15T12:30:56;3.90;1.00
20384;DHT22;46458;50.966;7.002;2024-01-15T12:33:26;4.10;99.90
20384;DHT22;46458;50.966;7.002;2024-01-15T12:35:54;4.20;1.00
20384;DHT22;46458;50.966;7.002;2024-01-15T12:38:23;4.20;99.90
20384;DHT22;46458;50.966;7.002;2024-01-15T12:40:52;4.00;1.00
20384;DHT22;46458;50.966;7.002;2024-01-15T12:43:23;3.80;99.90
20384;DHT22;46458;50.966;7.002;2024-01-15T12:45:52;3.60;1.00
20384;DHT22;46458;50.966;7.002;2024-01-15T12:48:19;3.50;1.00
20384;DHT22;46458;50.966;7.002;2024-01-15T12:50:48;3.40;1.00
20384;DHT22;46458;50.966;7.002;2024-01-15T12:53:16;3.20;99.90
20384;DHT22;46458;50.966;7.002;2024-01-15T12:55:45;3.20;1.00
20384;DHT22;46458;50.966;7.002;2024-01-15T12:58:14;3.10;1.00
20384;DHT22;46458;50.966;7.002;2024-01-15T13:00:45;3.10;1.00
20384;DHT22;46458;50.966;7.002;2024-01-15T13:03:14;3.20;1.00
20384;DHT22;46458;50.966;7.002;2024-01-15T13:05:44;3.20;1.00
20384;DHT22;46458;50.966;7.002;2024-01-15T13:08:14;3.20;99.90
20384;DHT22;46458;50.966;7.002;2024-01-15T13:10:43;3.30;99.90
20384;DHT22;46458;50.966;7.002;2024-01-15T13:13:12;3.20;99.90
20384;DHT22;46458;50.966;7.002;2024-01-15T13:15:41;2.90;99.90
20384;DHT22;46458;50.966;7.002;2024-01-15T13:18:12;3.10;1.00
20384;DHT22;46458;50.966;7.002;2024-01-15T13:20:41;3.10;99.90
20384;DHT22;46458;50.966;7.002;2024-01-15T13:23:11;3.10;49.50
20384;DHT22;46458;50.966;7.002;2024-01-15T13:25:40;3.10;99.90
20384;DHT22;46458;50.966;7.002;2024-01-15T13:28:09;3.10;99.90
20384;DHT22;46458;50.966;7.002;2024-01-15T13:30:38;3.20;99.90
20384;DHT22;46458;50.966;7.002;2024-01-15T13:33:08;3.10;1.00
20384;DHT22;46458;50.966;7.002;2024-01-15T13:35:39;3.10;1.00
20384;DHT22;46458;50.966;7.002;2024-01-15T13:38:08;3.10;1.00
20384;DHT22;46458;50.966;7.002;2024-01-15T13:40:37;3.10;99.90
20384;DHT22;46458;50.966;7.002;2024-01-15T13:43:05;3.00;1.00
20384;DHT22;46458;50.966;7.002;2024-01-15T13:45:35;3.20;1.00
20384;DHT22;46458;50.966;7.002;2024-01-15T13:48:04;3.20;1.00
20384;DHT22;46458;50.966;7.002;2024-01-15T13:50:34;3.30;1.00
20384;DHT22;46458;50.966;7.002;2024-01-15T13:53:06;3.30;1.00
20384;DHT22;46458;50.966;7.002;2024-01-15T13:55:35;3.30;1.00
20384;DHT22;46458;50.966;7.002;2024-01-15T13:58:04;3.30;99.90
20384;DHT22;46458;50.966;7.002;2024-01-15T14:00:33;3.30;1.00
20384;DHT22;46458;50.966;7.002;2024-01-15T14:03:02;3.30;99.90
20384;DHT22;46458;50.966;7.002;2024-01-15T14:05:31;3.30;99.90
20384;DHT22;46458;50.966;7.002;2024-01-15T14:08:00;3.20;99.90
20384;DHT22;46458;50.966;7.002;2024-01-15T14:10:32;3.10;99.90
20384;DHT22;46458;50.966;7.002;2024-01-15T14:13:01;3.00;99.90
20384;DHT22;46458;50.966;7.002;2024-01-15T14:15:29;2.90;1.00
20384;DHT22;46458;50.966;7.002;2024-01-15T14:17:58;2.90;99.90
20384;DHT22;46458;50.966;7.002;2024-01-15T14:20:27;2.80;99.90
20384;DHT22;46458;50.966;7.002;2024-01-15T14:22:56;2.70;1.00
20384;DHT22;46458;50.966;7.002;2024-01-15T14:25:25;2.70;1.00
20384;DHT22;46458;50.966;7.002;2024-01-15T14:27:57;2.70;1.00
20384;DHT22;46458;50.966;7.002;2024-01-15T14:30:26;2.70;99.90
20384;DHT22;46458;50.966;7.002;2024-01-15T14:32:54;2.70;1.00
20384;DHT22;46458;50.966;7.002;2024-01-15T14:35:23;2.70;1.00
20384;DHT22;46458;50.966;7.002;2024-01-15T14:37:52;2.80;1.00
20384;DHT22;46458;50.966;7.002;2024-01-15T14:40:21;2.80;1.00
20384;DHT22;46458;50.966;7.002;2024-01-15T14:42:49;2.90;1.00
20384;DHT22;46458;50.966;7.002;2024-01-15T14:45:21;3.00;1.00
20384;DHT22;46458;50.966;7.002;2024-01-15T14:47:50;3.00;99.90
20384;DHT22;46458;50.966;7.002;2024-01-15T14:50:18;2.90;99.90
20384;DHT22;46458;50.966;7.002;2024-01-15T14:52:47;2.90;1.00
20384;DHT22;46458;50.966;7.002;2024-01-15T14:55:16;2.90;1.00
20384;DHT22;46458;50.966;7.002;2024-01-15T14:57:45;2.80;1.00
20384;DHT22;46458;50.966;7.002;2024-01-15T15:00:15;2.80;1.00
20384;DHT22;46458;50.966;7.002;2024-01-15T15:02:46;2.80;1.00
20384;DHT22;46458;50.966;7.002;2024-01-15T15:05:15;2.80;1.00
20384;DHT22;46458;50.966;7.002;2024-01-15T15:07:44;2.70;99.90
20384;DHT22;46458;50.966;7.002;2024-01-15T15:10:13;2.70;1.00
20384;DHT22;46458;50.966;7.002;2024-01-15T15:12:45;2.70;99.90
20384;DHT22;46458;50.966;7.002;2024-01-15T15:15:14;2.70;1.00
20384;DHT22;46458;50.966;7.002;2024-01-15T15:17:47;3.10;49.60
20384;DHT22;46458;50.966;7.002;2024-01-15T15:20:16;2.70;99.90
20384;DHT22;46458;50.966;7.002;2024-01-15T15:22:44;2.60;99.90
20384;DHT22;46458;50.966;7.002;2024-01-15T15:25:13;2.60;1.00
20384;DHT22;46458;50.966;7.002;2024-01-15T15:27:42;2.60;1.00
20384;DHT22;46458;50.966;7.002;2024-01-15T15:30:11;2.60;99.90
20384;DHT22;46458;50.966;7.002;2024-01-15T15:32:40;2.50;1.00
20384;DHT22;46458;50.966;7.002;2024-01-15T15:35:11;2.60;1.00
20384;DHT22;46458;50.966;7.002;2024-01-15T15:37:40;2.60;1.00
20384;DHT22;46458;50.966;7.002;2024-01-15T15:40:09;2.50;1.00
20384;DHT22;46458;50.966;7.002;2024-01-15T15:42:39;2.50;1.00
20384;DHT22;46458;50.966;7.002;2024-01-15T15:45:08;2.50;99.90
20384;DHT22;46458;50.966;7.002;2024-01-15T15:47:38;2.50;99.90
20384;DHT22;46458;50.966;7.002;2024-01-15T15:50:07;2.40;1.00
20384;DHT22;46458;50.966;7.002;2024-01-15T15:52:39;2.40;1.00
20384;DHT22;46458;50.966;7.002;2024-01-15T15:55:08;2.30;99.90
20384;DHT22;46458;50.966;7.002;2024-01-15T15:57:37;2.10;1.00
20384;DHT22;46458;50.966;7.002;2024-01-15T16:00:07;2.00;1.00
20384;DHT22;46458;50.966;7.002;2024-01-15T16:02:40;2.10;99.90
20384;DHT22;46458;50.966;7.002;2024-01-15T16:05:09;2.00;1.00
20384;DHT22;46458;50.966;7.002;2024-01-15T16:07:40;2.00;1.00
20384;DHT22;46458;50.966;7.002;2024-01-15T16:10:09;3.50;99.90
20384;DHT22;46458;50.966;7.002;2024-01-15T16:12:38;2.00;99.90
20384;DHT22;46458;50.966;7.002;2024-01-15T16:15:17;2.00;99.90